sensor_id;sensor_type;location;lat;lon;timestamp;pressure;altitude;pressure_sealevel;temperature;humidity
27294;BME280;14785;52.556;13.430;2023-05-11T00:01:26;100559.69;;;19.22;100.00
27294;BME280;14785;52.556;13.430;2023-05-11T00:03:52;100563.84;;;19.31;100.00
27294;BME280;14785;52.556;13.430;2023-05-11T00:06:17;100554.25;;;19.35;100.00
27294;BME280;14785;52.556;13.430;2023-05-11T00:08:43;100563.13;;;19.42;100.00
27294;BME280;14785;52.556;13.430;2023-05-11T00:11:08;100562.91;;;19.50;100.00
27294;BME280;14785;52.556;13.430;2023-05-11T00:13:34;100560.72;;;19.34;100.00
27294;BME280;14785;52.556;13.430;2023-05-11T00:15:59;100556.56;;;19.25;100.00
27294;BME280;14785;52.556;13.430;2023-05-11T00:18:25;100557.38;;;19.25;100.00
27294;BME280;14785;52.556;13.430;2023-05-11T00:20:50;100560.78;;;19.08;100.00
27294;BME280;14785;52.556;13.430;2023-05-11T00:23:16;100559.72;;;19.09;100.00
27294;BME280;14785;52.556;13.430;2023-05-11T00:25:41;100560.59;;;19.02;100.00
27294;BME280;14785;52.556;13.430;2023-05-11T00:28:07;100555.41;;;19.08;100.00
27294;BME280;14785;52.556;13.430;2023-05-11T00:30:32;100546.53;;;18.94;100.00
27294;BME280;14785;52.556;13.430;2023-05-11T00:32:58;100550.91;;;18.88;100.00
27294;BME280;14785;52.556;13.430;2023-05-11T00:35:23;100547.59;;;18.80;100.00
27294;BME280;14785;52.556;13.430;2023-05-11T00:37:49;100548.63;;;18.85;100.00
27294;BME280;14785;52.556;13.430;2023-05-11T00:40:14;100541.84;;;18.70;100.00
27294;BME280;14785;52.556;13.430;2023-05-11T00:42:40;100554.03;;;18.72;100.00
27294;BME280;14785;52.556;13.430;2023-05-11T00:45:06;100558.22;;;18.68;100.00
27294;BME280;14785;52.556;13.430;2023-05-11T00:47:31;100559.91;;;18.56;100.00
27294;BME280;14785;52.556;13.430;2023-05-11T00:49:57;100558.84;;;18.57;100.00
27294;BME280;14785;52.556;13.430;2023-05-11T00:52:23;100560.75;;;18.50;100.00
27294;BME280;14785;52.556;13.430;2023-05-11T00:54:49;100555.78;;;18.47;100.00
27294;BME280;14785;52.556;13.430;2023-05-11T00:57:15;100556.59;;;18.28;100.00
27294;BME280;14785;52.556;13.430;2023-05-11T00:59:41;100557.44;;;18.16;100.00
27294;BME280;14785;52.556;13.430;2023-05-11T01:02:07;100550.41;;;18.21;100.00
27294;BME280;14785;52.556;13.430;2023-05-11T01:04:33;100554.13;;;18.14;100.00
27294;BME280;14785;52.556;13.430;2023-05-11T01:12:28;100554.06;;;17.55;100.00
27294;BME280;14785;52.556;13.430;2023-05-11T01:15:07;100545.38;;;17.53;100.00
27294;BME280;14785;52.556;13.430;2023-05-11T01:17:52;100549.94;;;17.72;100.00
27294;BME280;14785;52.556;13.430;2023-05-11T01:20:24;100558.59;;;17.48;100.00
27294;BME280;14785;52.556;13.430;2023-05-11T01:31:14;100568.47;;;17.41;100.00
27294;BME280;14785;52.556;13.430;2023-05-11T01:33:56;100565.72;;;17.15;100.00
27294;BME280;14785;52.556;13.430;2023-05-11T01:36:27;100568.28;;;17.36;100.00
27294;BME280;14785;52.556;13.430;2023-05-11T01:38:57;100558.13;;;17.32;100.00
27294;BME280;14785;52.556;13.430;2023-05-11T01:41:25;100559.84;;;17.46;100.00
27294;BME280;14785;52.556;13.430;2023-05-11T01:43:54;100568.13;;;17.57;100.00
27294;BME280;14785;52.556;13.430;2023-05-11T01:46:24;100577.66;;;17.53;100.00
27294;BME280;14785;52.556;13.430;2023-05-11T01:48:51;100575.69;;;17.34;100.00
27294;BME280;14785;52.556;13.430;2023-05-11T01:51:19;100580.03;;;17.29;100.00
27294;BME280;14785;52.556;13.430;2023-05-11T01:53:45;100589.66;;;17.10;100.00
27294;BME280;14785;52.556;13.430;2023-05-11T01:56:13;100587.94;;;16.96;100.00
27294;BME280;14785;52.556;13.430;2023-05-11T01:58:40;100590.88;;;16.67;100.00
27294;BME280;14785;52.556;13.430;2023-05-11T02:01:07;100581.41;;;16.71;100.00
27294;BME280;14785;52.556;13.430;2023-05-11T02:03:33;100583.59;;;16.95;100.00
27294;BME280;14785;52.556;13.430;2023-05-11T02:06:00;100594.91;;;16.84;100.00
27294;BME280;14785;52.556;13.430;2023-05-11T02:08:28;100584.06;;;17.05;100.00
27294;BME280;14785;52.556;13.430;2023-05-11T02:10:55;100583.69;;;17.14;100.00
27294;BME280;14785;52.556;13.430;2023-05-11T02:13:23;100585.41;;;17.35;100.00
27294;BME280;14785;52.556;13.430;2023-05-11T02:15:50;100588.38;;;17.47;100.00
27294;BME280;14785;52.556;13.430;2023-05-11T02:18:18;100596.06;;;17.56;100.00
27294;BME280;14785;52.556;13.430;2023-05-11T02:20:45;100590.69;;;17.56;100.00
27294;BME280;14785;52.556;13.430;2023-05-11T02:23:12;100596.91;;;17.63;100.00
27294;BME280;14785;52.556;13.430;2023-05-11T02:25:39;100598.13;;;17.54;100.00
27294;BME280;14785;52.556;13.430;2023-05-11T02:28:05;100594.59;;;17.47;100.00
27294;BME280;14785;52.556;13.430;2023-05-11T02:30:31;100611.16;;;17.57;100.00
27294;BME280;14785;52.556;13.430;2023-05-11T02:33:00;100599.59;;;17.63;100.00
27294;BME280;14785;52.556;13.430;2023-05-11T02:35:31;100596.66;;;17.52;100.00
27294;BME280;14785;52.556;13.430;2023-05-11T02:38:00;100594.38;;;17.49;100.00
27294;BME280;14785;52.556;13.430;2023-05-11T02:40:29;100605.78;;;17.57;100.00
27294;BME280;14785;52.556;13.430;2023-05-11T02:42:59;100609.00;;;17.40;100.00
27294;BME280;14785;52.556;13.430;2023-05-11T02:45:30;100598.25;;;17.33;100.00
27294;BME280;14785;52.556;13.430;2023-05-11T02:47:57;100598.44;;;17.32;100.00
27294;BME280;14785;52.556;13.430;2023-05-11T02:50:26;100591.19;;;17.26;100.00
27294;BME280;14785;52.556;13.430;2023-05-11T02:52:56;100589.13;;;17.28;100.00
27294;BME280;14785;52.556;13.430;2023-05-11T02:55:24;100587.44;;;17.20;100.00
27294;BME280;14785;52.556;13.430;2023-05-11T02:57:50;100593.69;;;17.27;100.00
27294;BME280;14785;52.556;13.430;2023-05-11T03:00:16;100596.13;;;17.22;100.00
27294;BME280;14785;52.556;13.430;2023-05-11T03:02:41;100601.06;;;17.18;100.00
27294;BME280;14785;52.556;13.430;2023-05-11T03:05:07;100606.88;;;17.22;100.00
27294;BME280;14785;52.556;13.430;2023-05-11T03:07:33;100608.53;;;17.23;100.00
27294;BME280;14785;52.556;13.430;2023-05-11T03:10:01;100602.31;;;17.16;100.00
27294;BME280;14785;52.556;13.430;2023-05-11T03:12:27;100602.31;;;17.16;100.00
27294;BME280;14785;52.556;13.430;2023-05-11T03:14:57;100605.22;;;17.21;100.00
27294;BME280;14785;52.556;13.430;2023-05-11T03:17:24;100602.56;;;17.21;100.00
27294;BME280;14785;52.556;13.430;2023-05-11T03:19:50;100605.16;;;17.08;100.00
27294;BME280;14785;52.556;13.430;2023-05-11T03:22:17;100603.09;;;17.10;100.00
27294;BME280;14785;52.556;13.430;2023-05-11T03:24:43;100602.25;;;17.09;100.00
27294;BME280;14785;52.556;13.430;2023-05-11T03:27:10;100598.97;;;17.14;100.00
27294;BME280;14785;52.556;13.430;2023-05-11T03:29:35;100599.38;;;17.11;100.00
27294;BME280;14785;52.556;13.430;2023-05-11T03:32:05;100599.38;;;17.04;100.00
27294;BME280;14785;52.556;13.430;2023-05-11T03:34:30;100606.00;;;17.08;100.00
27294;BME280;14785;52.556;13.430;2023-05-11T03:36:57;100600.63;;;17.08;100.00
27294;BME280;14785;52.556;13.430;2023-05-11T03:39:24;100609.28;;;17.04;100.00
27294;BME280;14785;52.556;13.430;2023-05-11T03:41:52;100615.84;;;16.95;100.00
27294;BME280;14785;52.556;13.430;2023-05-11T03:44:20;100611.25;;;16.89;100.00
27294;BME280;14785;52.556;13.430;2023-05-11T03:46:46;100615.41;;;16.91;100.00
27294;BME280;14785;52.556;13.430;2023-05-11T03:49:15;100611.72;;;16.99;100.00
27294;BME280;14785;52.556;13.430;2023-05-11T03:51:42;100608.25;;;17.05;100.00
27294;BME280;14785;52.556;13.430;2023-05-11T03:54:11;100603.09;;;17.10;100.00
27294;BME280;14785;52.556;13.430;2023-05-11T03:56:37;100596.88;;;17.03;100.00
27294;BME280;14785;52.556;13.430;2023-05-11T03:59:03;100597.56;;;17.18;100.00
27294;BME280;14785;52.556;13.430;2023-05-11T04:01:30;100608.03;;;17.00;100.00
27294;BME280;14785;52.556;13.430;2023-05-11T04:03:56;100607.53;;;16.90;100.00
27294;BME280;14785;52.556;13.430;2023-05-11T04:06:21;100605.50;;;16.92;100.00
27294;BME280;14785;52.556;13.430;2023-05-11T04:08:47;100611.41;;;16.81;100.00
27294;BME280;14785;52.556;13.430;2023-05-11T04:11:12;100612.91;;;16.35;100.00
27294;BME280;14785;52.556;13.430;2023-05-11T04:13:38;100610.91;;;16.16;100.00
27294;BME280;14785;52.556;13.430;2023-05-11T04:16:04;100611.03;;;15.66;100.00
27294;BME280;14785;52.556;13.430;2023-05-11T04:18:29;100609.28;;;16.21;100.00
27294;BME280;14785;52.556;13.430;2023-05-11T04:20:55;100611.38;;;15.98;100.00
27294;BME280;14785;52.556;13.430;2023-05-11T04:23:20;100597.88;;;16.13;100.00
27294;BME280;14785;52.556;13.430;2023-05-11T04:25:46;100605.28;;;16.11;100.00
27294;BME280;14785;52.556;13.430;2023-05-11T04:28:11;100612.91;;;16.35;100.00
27294;BME280;14785;52.556;13.430;2023-05-11T04:30:37;100617.50;;;16.41;100.00
27294;BME280;14785;52.556;13.430;2023-05-11T04:33:02;100617.03;;;16.52;100.00
27294;BME280;14785;52.556;13.430;2023-05-11T04:35:29;100619.78;;;16.65;100.00
27294;BME280;14785;52.556;13.430;2023-05-11T04:37:57;100618.91;;;16.58;100.00
27294;BME280;14785;52.556;13.430;2023-05-11T04:40:26;100619.13;;;16.35;100.00
27294;BME280;14785;52.556;13.430;2023-05-11T04:42:52;100616.31;;;16.71;100.00
27294;BME280;14785;52.556;13.430;2023-05-11T04:45:17;100622.44;;;16.92;100.00
27294;BME280;14785;52.556;13.430;2023-05-11T04:47:43;100628.91;;;16.70;100.00
27294;BME280;14785;52.556;13.430;2023-05-11T04:50:09;100626.25;;;16.22;100.00
27294;BME280;14785;52.556;13.430;2023-05-11T04:52:34;100625.56;;;16.62;100.00
27294;BME280;14785;52.556;13.430;2023-05-11T04:55:00;100634.66;;;16.61;100.00
27294;BME280;14785;52.556;13.430;2023-05-11T04:57:25;100628.75;;;16.51;100.00
27294;BME280;14785;52.556;13.430;2023-05-11T04:59:51;100633.34;;;16.57;100.00
27294;BME280;14785;52.556;13.430;2023-05-11T05:02:17;100636.69;;;16.59;100.00
27294;BME280;14785;52.556;13.430;2023-05-11T05:04:42;100632.88;;;16.47;100.00
27294;BME280;14785;52.556;13.430;2023-05-11T05:07:08;100641.56;;;16.49;100.00
27294;BME280;14785;52.556;13.430;2023-05-11T05:09:33;100632.75;;;16.89;100.00
27294;BME280;14785;52.556;13.430;2023-05-11T05:11:59;100637.41;;;16.74;100.00
27294;BME280;14785;52.556;13.430;2023-05-11T05:14:25;100641.53;;;16.70;100.00
27294;BME280;14785;52.556;13.430;2023-05-11T05:16:51;100640.97;;;16.81;100.00
27294;BME280;14785;52.556;13.430;2023-05-11T05:19:18;100639.50;;;16.78;100.00
27294;BME280;14785;52.556;13.430;2023-05-11T05:21:44;100646.47;;;17.00;100.00
27294;BME280;14785;52.556;13.430;2023-05-11T05:24:10;100640.09;;;17.08;100.00
27294;BME280;14785;52.556;13.430;2023-05-11T05:26:36;100640.34;;;16.79;100.00
27294;BME280;14785;52.556;13.430;2023-05-11T05:29:01;100643.63;;;16.47;100.00
27294;BME280;14785;52.556;13.430;2023-05-11T05:31:27;100642.38;;;16.77;100.00
27294;BME280;14785;52.556;13.430;2023-05-11T05:33:53;100640.19;;;17.28;100.00
27294;BME280;14785;52.556;13.430;2023-05-11T05:36:18;100644.84;;;17.06;100.00
27294;BME280;14785;52.556;13.430;2023-05-11T05:38:43;100643.81;;;16.73;100.00
27294;BME280;14785;52.556;13.430;2023-05-11T05:41:09;100655.91;;;16.90;100.00
27294;BME280;14785;52.556;13.430;2023-05-11T05:43:35;100652.28;;;17.04;100.00
27294;BME280;14785;52.556;13.430;2023-05-11T05:46:00;100657.47;;;16.78;100.00
27294;BME280;14785;52.556;13.430;2023-05-11T05:48:27;100655.03;;;16.83;100.00
27294;BME280;14785;52.556;13.430;2023-05-11T05:50:53;100654.81;;;17.18;100.00
27294;BME280;14785;52.556;13.430;2023-05-11T05:53:21;100660.69;;;17.29;100.00
27294;BME280;14785;52.556;13.430;2023-05-11T05:55:46;100664.06;;;17.03;100.00
27294;BME280;14785;52.556;13.430;2023-05-11T05:58:11;100676.72;;;17.15;100.00
27294;BME280;14785;52.556;13.430;2023-05-11T06:00:37;100670.53;;;17.15;100.00
27294;BME280;14785;52.556;13.430;2023-05-11T06:03:02;100672.72;;;17.39;100.00
27294;BME280;14785;52.556;13.430;2023-05-11T06:05:28;100672.06;;;17.71;100.00
27294;BME280;14785;52.556;13.430;2023-05-11T06:07:53;100678.69;;;17.75;100.00
27294;BME280;14785;52.556;13.430;2023-05-11T06:10:19;100671.06;;;17.85;100.00
27294;BME280;14785;52.556;13.430;2023-05-11T06:12:44;100671.75;;;18.13;100.00
27294;BME280;14785;52.556;13.430;2023-05-11T06:15:10;100678.38;;;18.24;100.00
27294;BME280;14785;52.556;13.430;2023-05-11T06:17:35;100678.59;;;18.22;100.00
27294;BME280;14785;52.556;13.430;2023-05-11T06:20:01;100679.16;;;17.98;100.00
27294;BME280;14785;52.556;13.430;2023-05-11T06:22:26;100682.75;;;18.31;100.00
27294;BME280;14785;52.556;13.430;2023-05-11T06:24:52;100675.94;;;18.61;100.00
27294;BME280;14785;52.556;13.430;2023-05-11T06:27:17;100676.56;;;18.37;100.00
27294;BME280;14785;52.556;13.430;2023-05-11T06:29:42;100674.69;;;18.57;100.00
27294;BME280;14785;52.556;13.430;2023-05-11T06:32:10;100676.94;;;18.21;100.00
27294;BME280;14785;52.556;13.430;2023-05-11T06:34:35;100675.91;;;18.22;100.00
27294;BME280;14785;52.556;13.430;2023-05-11T06:37:00;100679.59;;;18.08;100.00
27294;BME280;14785;52.556;13.430;2023-05-11T06:39:26;100669.88;;;18.07;100.00
27294;BME280;14785;52.556;13.430;2023-05-11T06:41:53;100681.84;;;17.85;100.00
27294;BME280;14785;52.556;13.430;2023-05-11T06:44:18;100680.88;;;18.25;100.00
27294;BME280;14785;52.556;13.430;2023-05-11T06:46:44;100682.91;;;18.10;100.00
27294;BME280;14785;52.556;13.430;2023-05-11T06:49:09;100685.41;;;18.25;100.00
27294;BME280;14785;52.556;13.430;2023-05-11T06:51:35;100676.91;;;18.08;100.00
27294;BME280;14785;52.556;13.430;2023-05-11T06:54:00;100683.81;;;18.43;100.00
27294;BME280;14785;52.556;13.430;2023-05-11T06:56:26;100683.19;;;18.74;100.00
27294;BME280;14785;52.556;13.430;2023-05-11T06:58:52;100673.88;;;18.70;100.00
27294;BME280;14785;52.556;13.430;2023-05-11T07:01:17;100673.66;;;18.78;100.00
27294;BME280;14785;52.556;13.430;2023-05-11T07:03:43;100681.13;;;18.50;100.00
27294;BME280;14785;52.556;13.430;2023-05-11T07:06:08;100680.09;;;18.44;100.00
27294;BME280;14785;52.556;13.430;2023-05-11T07:08:33;100693.53;;;18.96;100.00
27294;BME280;14785;52.556;13.430;2023-05-11T07:10:59;100684.84;;;18.81;100.00
27294;BME280;14785;52.556;13.430;2023-05-11T07:13:24;100679.25;;;18.76;100.00
27294;BME280;14785;52.556;13.430;2023-05-11T07:15:50;100688.34;;;19.02;100.00
27294;BME280;14785;52.556;13.430;2023-05-11T07:18:17;100685.84;;;19.07;100.00
27294;BME280;14785;52.556;13.430;2023-05-11T07:20:42;100686.44;;;19.09;100.00
27294;BME280;14785;52.556;13.430;2023-05-11T07:23:09;100690.03;;;18.89;100.00
27294;BME280;14785;52.556;13.430;2023-05-11T07:25:34;100689.22;;;18.82;100.00
27294;BME280;14785;52.556;13.430;2023-05-11T07:27:59;100695.38;;;19.02;100.00
27294;BME280;14785;52.556;13.430;2023-05-11T07:30:25;100692.97;;;19.58;100.00
27294;BME280;14785;52.556;13.430;2023-05-11T07:32:52;100696.75;;;19.95;100.00
27294;BME280;14785;52.556;13.430;2023-05-11T07:35:17;100689.19;;;20.10;100.00
27294;BME280;14785;52.556;13.430;2023-05-11T07:37:43;100680.25;;;20.16;100.00
27294;BME280;14785;52.556;13.430;2023-05-11T07:40:08;100687.16;;;19.99;100.00
27294;BME280;14785;52.556;13.430;2023-05-11T07:42:34;100689.00;;;19.67;100.00
27294;BME280;14785;52.556;13.430;2023-05-11T07:44:59;100696.75;;;19.51;100.00
27294;BME280;14785;52.556;13.430;2023-05-11T07:47:25;100687.53;;;20.15;100.00
27294;BME280;14785;52.556;13.430;2023-05-11T07:49:51;100692.22;;;19.89;100.00
27294;BME280;14785;52.556;13.430;2023-05-11T07:52:16;100685.44;;;20.17;100.00
27294;BME280;14785;52.556;13.430;2023-05-11T07:54:42;100685.81;;;20.21;100.00
27294;BME280;14785;52.556;13.430;2023-05-11T07:57:08;100687.50;;;19.78;100.00
27294;BME280;14785;52.556;13.430;2023-05-11T07:59:35;100682.09;;;20.22;100.00
27294;BME280;14785;52.556;13.430;2023-05-11T08:02:02;100679.50;;;20.58;100.00
27294;BME280;14785;52.556;13.430;2023-05-11T08:04:28;100676.03;;;20.75;100.00
27294;BME280;14785;52.556;13.430;2023-05-11T08:06:54;100679.56;;;20.51;100.00
27294;BME280;14785;52.556;13.430;2023-05-11T08:09:21;100687.13;;;20.43;100.00
27294;BME280;14785;52.556;13.430;2023-05-11T08:11:46;100674.53;;;20.55;100.00
27294;BME280;14785;52.556;13.430;2023-05-11T08:14:11;100685.63;;;20.47;100.00
27294;BME280;14785;52.556;13.430;2023-05-11T08:16:37;100682.69;;;20.73;100.00
27294;BME280;14785;52.556;13.430;2023-05-11T08:19:03;100681.06;;;20.72;100.00
27294;BME280;14785;52.556;13.430;2023-05-11T08:21:28;100683.84;;;21.08;100.00
27294;BME280;14785;52.556;13.430;2023-05-11T08:23:54;100678.91;;;21.41;100.00
27294;BME280;14785;52.556;13.430;2023-05-11T08:26:19;100684.59;;;21.51;100.00
27294;BME280;14785;52.556;13.430;2023-05-11T08:28:45;100675.31;;;21.29;100.00
27294;BME280;14785;52.556;13.430;2023-05-11T08:31:10;100683.88;;;21.44;100.00
27294;BME280;14785;52.556;13.430;2023-05-11T08:33:38;100684.03;;;21.49;100.00
27294;BME280;14785;52.556;13.430;2023-05-11T08:36:04;100683.53;;;20.98;100.00
27294;BME280;14785;52.556;13.430;2023-05-11T08:38:30;100676.03;;;21.00;100.00
27294;BME280;14785;52.556;13.430;2023-05-11T08:40:55;100686.34;;;21.10;100.00
27294;BME280;14785;52.556;13.430;2023-05-11T08:43:21;100678.91;;;21.23;100.00
27294;BME280;14785;52.556;13.430;2023-05-11T08:45:49;100678.94;;;21.71;100.00
27294;BME280;14785;52.556;13.430;2023-05-11T08:48:17;100680.25;;;21.68;100.00
27294;BME280;14785;52.556;13.430;2023-05-11T08:50:44;100679.03;;;21.82;100.00
27294;BME280;14785;52.556;13.430;2023-05-11T08:53:10;100679.41;;;21.86;99.90
27294;BME280;14785;52.556;13.430;2023-05-11T08:55:36;100671.81;;;21.76;100.00
27294;BME280;14785;52.556;13.430;2023-05-11T08:58:04;100676.25;;;21.89;100.00
27294;BME280;14785;52.556;13.430;2023-05-11T09:00:31;100682.16;;;21.97;98.46
27294;BME280;14785;52.556;13.430;2023-05-11T09:02:57;100679.25;;;21.81;99.37
27294;BME280;14785;52.556;13.430;2023-05-11T09:05:24;100666.69;;;22.16;99.01
27294;BME280;14785;52.556;13.430;2023-05-11T09:07:52;100680.25;;;22.27;96.63
27294;BME280;14785;52.556;13.430;2023-05-11T09:10:19;100676.16;;;22.36;97.12
27294;BME280;14785;52.556;13.430;2023-05-11T09:12:45;100674.19;;;22.43;94.54
27294;BME280;14785;52.556;13.430;2023-05-11T09:15:11;100669.41;;;22.27;95.71
27294;BME280;14785;52.556;13.430;2023-05-11T09:17:36;100666.56;;;22.64;95.31
27294;BME280;14785;52.556;13.430;2023-05-11T09:20:05;100678.56;;;22.56;93.76
27294;BME280;14785;52.556;13.430;2023-05-11T09:22:41;100672.88;;;22.46;92.73
27294;BME280;14785;52.556;13.430;2023-05-11T09:25:10;100659.25;;;22.64;87.52
27294;BME280;14785;52.556;13.430;2023-05-11T09:27:42;100656.38;;;22.47;85.34
27294;BME280;14785;52.556;13.430;2023-05-11T09:30:10;100669.28;;;22.22;85.85
27294;BME280;14785;52.556;13.430;2023-05-11T09:32:56;100668.88;;;22.48;84.22
27294;BME280;14785;52.556;13.430;2023-05-11T09:35:30;100672.91;;;22.58;83.52
27294;BME280;14785;52.556;13.430;2023-05-11T09:38:11;100678.00;;;22.77;81.00
27294;BME280;14785;52.556;13.430;2023-05-11T09:40:40;100678.47;;;23.09;76.86
27294;BME280;14785;52.556;13.430;2023-05-11T09:43:20;100677.53;;;23.15;77.64
27294;BME280;14785;52.556;13.430;2023-05-11T09:45:46;100690.88;;;23.28;78.42
27294;BME280;14785;52.556;13.430;2023-05-11T09:48:32;100679.84;;;23.46;79.01
27294;BME280;14785;52.556;13.430;2023-05-11T09:51:03;100691.56;;;23.46;78.49
27294;BME280;14785;52.556;13.430;2023-05-11T09:53:43;100678.91;;;23.52;78.95
27294;BME280;14785;52.556;13.430;2023-05-11T09:56:11;100679.41;;;23.37;79.63
27294;BME280;14785;52.556;13.430;2023-05-11T09:58:50;100670.34;;;23.32;78.80
27294;BME280;14785;52.556;13.430;2023-05-11T10:01:17;100668.88;;;23.52;79.67
27294;BME280;14785;52.556;13.430;2023-05-11T10:03:51;100667.97;;;23.75;77.80
27294;BME280;14785;52.556;13.430;2023-05-11T10:06:19;100665.63;;;23.67;73.76
27294;BME280;14785;52.556;13.430;2023-05-11T10:08:46;100669.63;;;23.76;73.31
27294;BME280;14785;52.556;13.430;2023-05-11T10:11:11;100672.69;;;23.68;72.46
27294;BME280;14785;52.556;13.430;2023-05-11T10:13:38;100669.31;;;23.89;72.05
27294;BME280;14785;52.556;13.430;2023-05-11T10:16:04;100653.97;;;24.39;72.54
27294;BME280;14785;52.556;13.430;2023-05-11T10:18:31;100664.94;;;24.44;73.16
27294;BME280;14785;52.556;13.430;2023-05-11T10:20:57;100661.38;;;24.93;71.75
27294;BME280;14785;52.556;13.430;2023-05-11T10:23:24;100660.41;;;24.83;69.83
27294;BME280;14785;52.556;13.430;2023-05-11T10:25:51;100666.88;;;24.98;69.59
27294;BME280;14785;52.556;13.430;2023-05-11T10:28:18;100656.03;;;25.20;66.65
27294;BME280;14785;52.556;13.430;2023-05-11T10:30:45;100657.81;;;25.47;64.13
27294;BME280;14785;52.556;13.430;2023-05-11T10:33:12;100662.69;;;25.67;64.46
27294;BME280;14785;52.556;13.430;2023-05-11T10:35:38;100652.53;;;26.10;65.29
27294;BME280;14785;52.556;13.430;2023-05-11T10:38:05;100659.84;;;27.00;63.14
27294;BME280;14785;52.556;13.430;2023-05-11T10:40:37;100664.13;;;27.94;58.79
27294;BME280;14785;52.556;13.430;2023-05-11T10:45:56;100661.91;;;27.86;56.47
27294;BME280;14785;52.556;13.430;2023-05-11T10:56:34;100659.31;;;27.54;57.53
27294;BME280;14785;52.556;13.430;2023-05-11T11:02:07;100657.06;;;27.36;54.65
27294;BME280;14785;52.556;13.430;2023-05-11T11:04:44;100649.53;;;27.12;55.17
27294;BME280;14785;52.556;13.430;2023-05-11T11:07:11;100644.91;;;26.71;55.90
27294;BME280;14785;52.556;13.430;2023-05-11T11:12:16;100661.16;;;28.16;53.77
27294;BME280;14785;52.556;13.430;2023-05-11T11:17:40;100666.91;;;28.14;52.86
27294;BME280;14785;52.556;13.430;2023-05-11T11:20:06;100660.34;;;28.25;53.77
27294;BME280;14785;52.556;13.430;2023-05-11T11:25:06;100647.22;;;28.87;50.86
27294;BME280;14785;52.556;13.430;2023-05-11T11:30:20;100663.06;;;28.10;50.91
27294;BME280;14785;52.556;13.430;2023-05-11T11:32:47;100649.41;;;28.95;50.68
27294;BME280;14785;52.556;13.430;2023-05-11T11:38:08;100656.97;;;29.43;51.02
27294;BME280;14785;52.556;13.430;2023-05-11T11:40:37;100657.81;;;29.98;48.81
27294;BME280;14785;52.556;13.430;2023-05-11T11:43:13;100663.28;;;29.34;50.03
27294;BME280;14785;52.556;13.430;2023-05-11T11:45:55;100656.81;;;29.05;49.36
27294;BME280;14785;52.556;13.430;2023-05-11T11:51:06;100676.25;;;26.37;55.71
27294;BME280;14785;52.556;13.430;2023-05-11T12:01:13;100667.53;;;25.43;62.60
27294;BME280;14785;52.556;13.430;2023-05-11T12:03:40;100675.97;;;24.54;61.87
27294;BME280;14785;52.556;13.430;2023-05-11T12:06:07;100669.41;;;25.21;61.35
27294;BME280;14785;52.556;13.430;2023-05-11T12:08:34;100675.50;;;25.93;58.43
27294;BME280;14785;52.556;13.430;2023-05-11T12:11:02;100680.03;;;26.04;57.60
27294;BME280;14785;52.556;13.430;2023-05-11T12:13:29;100674.50;;;25.99;56.07
27294;BME280;14785;52.556;13.430;2023-05-11T12:16:08;100673.34;;;25.30;56.53
27294;BME280;14785;52.556;13.430;2023-05-11T12:18:34;100677.69;;;25.69;55.43
27294;BME280;14785;52.556;13.430;2023-05-11T12:21:00;100681.47;;;25.68;53.39
27294;BME280;14785;52.556;13.430;2023-05-11T12:23:26;100674.09;;;25.42;53.23
27294;BME280;14785;52.556;13.430;2023-05-11T12:26:07;100670.94;;;25.50;49.89
27294;BME280;14785;52.556;13.430;2023-05-11T12:28:32;100678.13;;;25.83;50.43
27294;BME280;14785;52.556;13.430;2023-05-11T12:30:58;100679.25;;;26.08;51.63
27294;BME280;14785;52.556;13.430;2023-05-11T12:33:24;100676.63;;;26.50;51.22
27294;BME280;14785;52.556;13.430;2023-05-11T12:35:51;100677.91;;;25.89;52.91
27294;BME280;14785;52.556;13.430;2023-05-11T12:38:17;100671.47;;;25.52;53.94
27294;BME280;14785;52.556;13.430;2023-05-11T12:40:48;100663.84;;;26.24;53.87
27294;BME280;14785;52.556;13.430;2023-05-11T12:43:20;100674.59;;;26.09;54.44
27294;BME280;14785;52.556;13.430;2023-05-11T12:45:47;100677.81;;;25.79;52.86
27294;BME280;14785;52.556;13.430;2023-05-11T12:48:14;100670.72;;;25.78;53.60
27294;BME280;14785;52.556;13.430;2023-05-11T12:50:43;100677.84;;;25.58;54.44
27294;BME280;14785;52.556;13.430;2023-05-11T12:53:17;100669.94;;;25.61;53.48
27294;BME280;14785;52.556;13.430;2023-05-11T12:55:43;100670.78;;;25.62;52.25
27294;BME280;14785;52.556;13.430;2023-05-11T12:58:14;100671.56;;;25.57;51.50
27294;BME280;14785;52.556;13.430;2023-05-11T13:00:54;100678.78;;;25.30;52.44
27294;BME280;14785;52.556;13.430;2023-05-11T13:03:28;100682.75;;;25.82;52.67
27294;BME280;14785;52.556;13.430;2023-05-11T13:06:07;100682.44;;;26.59;49.67
27294;BME280;14785;52.556;13.430;2023-05-11T13:08:37;100663.53;;;26.84;48.54
27294;BME280;14785;52.556;13.430;2023-05-11T13:11:35;100677.44;;;27.19;49.40
27294;BME280;14785;52.556;13.430;2023-05-11T13:14:13;100669.44;;;27.54;47.77
27294;BME280;14785;52.556;13.430;2023-05-11T13:16:39;100665.66;;;27.65;45.17
27294;BME280;14785;52.556;13.430;2023-05-11T13:19:05;100675.97;;;28.35;42.73
27294;BME280;14785;52.556;13.430;2023-05-11T13:21:34;100666.16;;;28.69;42.59
27294;BME280;14785;52.556;13.430;2023-05-11T13:23:59;100665.88;;;28.65;41.67
27294;BME280;14785;52.556;13.430;2023-05-11T13:26:31;100661.03;;;30.10;38.67